createdAt,value
2023-01-03T00:01:18.219Z,3.42
2023-01-03T00:03:46.391Z,2.28
2023-01-03T00:06:19.102Z,2.40
2023-01-03T00:08:49.159Z,2.78
2023-01-03T00:11:19.633Z,2.90
2023-01-03T00:13:46.661Z,3.28
2023-01-03T00:16:18.308Z,2.78
2023-01-03T00:18:46.686Z,2.95
2023-01-03T00:21:14.836Z,3.17
2023-01-03T00:23:42.767Z,4.75
2023-01-03T00:26:13.168Z,7.28
2023-01-03T00:28:41.391Z,6.28
2023-01-03T00:31:10.516Z,4.68
2023-01-03T00:33:39.074Z,5.00
2023-01-03T00:36:08.701Z,3.53
2023-01-03T00:38:37.179Z,2.80
2023-01-03T00:41:06.412Z,2.58
2023-01-03T00:43:36.514Z,2.40
2023-01-03T00:46:05.173Z,1.92
2023-01-03T00:48:33.272Z,1.90
2023-01-03T00:51:07.239Z,1.65
2023-01-03T00:53:35.154Z,1.90
2023-01-03T00:56:04.575Z,2.15
2023-01-03T00:58:32.975Z,1.88
2023-01-03T01:01:07.866Z,1.83
2023-01-03T01:03:36.554Z,2.15
2023-01-03T01:06:13.185Z,1.90
2023-01-03T01:08:41.157Z,2.10
2023-01-03T01:11:09.812Z,1.95
2023-01-03T01:13:37.712Z,2.13
2023-01-03T01:16:09.030Z,1.80
2023-01-03T01:18:37.317Z,1.70
2023-01-03T01:21:06.794Z,1.65
2023-01-03T01:23:37.001Z,2.00
2023-01-03T01:26:05.673Z,2.10
2023-01-03T01:28:35.046Z,2.15
2023-01-03T01:31:04.126Z,1.92
2023-01-03T01:33:35.589Z,1.70
2023-01-03T01:36:07.824Z,2.20
2023-01-03T01:38:36.090Z,2.08
2023-01-03T01:41:04.139Z,2.00
2023-01-03T01:43:49.298Z,2.00
2023-01-03T01:46:22.724Z,1.88
2023-01-03T01:48:55.652Z,1.85
2023-01-03T01:53:55.202Z,2.20
2023-01-03T01:56:26.429Z,2.25
2023-01-03T01:58:55.195Z,2.00
2023-01-03T02:01:24.573Z,1.95
2023-01-03T02:04:01.358Z,2.10
2023-01-03T02:06:31.704Z,1.70
2023-01-03T02:08:59.568Z,2.00
2023-01-03T02:11:37.184Z,2.67
2023-01-03T02:14:22.298Z,2.60
2023-01-03T02:17:01.423Z,2.97
2023-01-03T02:20:08.928Z,3.10
2023-01-03T02:23:13.492Z,3.45
2023-01-03T02:26:04.354Z,4.40
2023-01-03T02:29:07.184Z,4.20
2023-01-03T02:31:43.089Z,4.43
2023-01-03T02:34:21.768Z,4.10
2023-01-03T02:37:00.172Z,4.80
2023-01-03T02:39:40.838Z,4.28
2023-01-03T02:42:31.827Z,4.50
2023-01-03T02:45:05.796Z,4.70
2023-01-03T02:47:44.253Z,4.10
2023-01-03T02:50:14.686Z,3.13
2023-01-03T02:52:44.143Z,3.10
2023-01-03T02:55:17.343Z,3.25
2023-01-03T02:57:50.099Z,3.03
2023-01-03T03:00:21.913Z,2.95
2023-01-03T03:02:54.699Z,2.80
2023-01-03T03:07:52.616Z,2.63
2023-01-03T03:10:39.431Z,2.55
2023-01-03T03:13:15.782Z,2.95
2023-01-03T03:15:49.068Z,2.88
2023-01-03T03:18:21.799Z,2.70
2023-01-03T03:21:07.023Z,3.00
2023-01-03T03:23:56.879Z,2.60
2023-01-03T03:26:31.799Z,3.05
2023-01-03T03:29:04.024Z,3.17
2023-01-03T03:31:36.528Z,2.88
2023-01-03T03:34:10.436Z,2.60
2023-01-03T03:36:46.273Z,2.63
2023-01-03T03:39:30.453Z,2.72
2023-01-03T03:42:28.720Z,2.30
2023-01-03T03:45:02.903Z,2.65
2023-01-03T03:47:39.350Z,2.05
2023-01-03T03:50:14.736Z,2.10
2023-01-03T03:52:47.327Z,2.30
2023-01-03T03:55:18.172Z,2.13
2023-01-03T03:57:52.061Z,2.45
2023-01-03T04:00:25.943Z,2.20
2023-01-03T04:02:56.901Z,2.50
2023-01-03T04:05:30.338Z,2.50
2023-01-03T04:07:58.100Z,2.08
2023-01-03T04:10:26.136Z,2.42
2023-01-03T04:12:54.284Z,2.30
2023-01-03T04:15:22.451Z,2.20
2023-01-03T04:17:50.300Z,2.60
2023-01-03T04:20:18.950Z,2.45
2023-01-03T04:22:48.078Z,2.40
2023-01-03T04:25:16.288Z,2.53
2023-01-03T04:27:44.019Z,2.65
2023-01-03T04:30:12.932Z,2.67
2023-01-03T04:32:40.657Z,3.10
2023-01-03T04:35:09.137Z,13.30
2023-01-03T04:37:36.822Z,11.52
2023-01-03T04:40:06.962Z,4.93
2023-01-03T04:42:52.008Z,3.97
2023-01-03T04:45:19.977Z,2.80
2023-01-03T04:47:47.888Z,3.08
2023-01-03T04:50:15.629Z,2.60
2023-01-03T04:52:43.310Z,2.45
2023-01-03T04:55:13.243Z,2.50
2023-01-03T04:57:40.964Z,2.45
2023-01-03T05:00:10.029Z,2.83
2023-01-03T05:02:37.876Z,2.90
2023-01-03T05:05:06.592Z,6.88
2023-01-03T05:07:34.366Z,5.15
2023-01-03T05:10:02.146Z,3.95
2023-01-03T05:12:31.228Z,3.92
2023-01-03T05:14:59.023Z,3.67
2023-01-03T05:17:26.776Z,3.03
2023-01-03T05:20:12.473Z,4.28
2023-01-03T05:22:57.610Z,5.88
2023-01-03T05:25:42.986Z,5.15
2023-01-03T05:28:17.277Z,5.53
2023-01-03T05:30:45.279Z,4.85
2023-01-03T05:33:12.967Z,4.47
2023-01-03T05:35:40.704Z,5.43
2023-01-03T05:38:08.521Z,5.40
2023-01-03T05:40:41.072Z,3.60
2023-01-03T05:45:38.574Z,5.57
2023-01-03T05:48:07.081Z,3.40
2023-01-03T05:50:34.817Z,3.53
2023-01-03T05:53:03.902Z,3.35
2023-01-03T05:55:31.686Z,3.75
2023-01-03T05:57:59.414Z,5.40
2023-01-03T06:00:27.114Z,4.97
2023-01-03T06:02:56.763Z,4.57
2023-01-03T06:05:24.724Z,5.85
2023-01-03T06:07:52.608Z,5.53
2023-01-03T06:10:20.406Z,5.78
2023-01-03T06:12:48.192Z,8.95
2023-01-03T06:15:15.975Z,6.55
2023-01-03T06:17:54.718Z,7.88
2023-01-03T06:20:24.113Z,8.13
2023-01-03T06:22:54.933Z,7.00
2023-01-03T06:25:23.035Z,7.20
2023-01-03T06:27:50.837Z,13.50
2023-01-03T06:30:18.648Z,15.20
2023-01-03T06:32:46.590Z,7.88
2023-01-03T06:35:14.605Z,6.40
2023-01-03T06:37:43.687Z,6.88
2023-01-03T06:40:12.359Z,6.07
2023-01-03T06:42:46.155Z,23.50
2023-01-03T06:45:33.526Z,6.00
2023-01-03T06:48:22.975Z,7.95
2023-01-03T06:51:08.508Z,4.53
2023-01-03T06:53:39.810Z,6.03
2023-01-03T06:56:09.908Z,5.70
2023-01-03T06:58:38.035Z,4.95
2023-01-03T07:01:07.489Z,4.30
2023-01-03T07:03:35.415Z,6.35
2023-01-03T07:06:03.275Z,5.63
2023-01-03T07:08:31.038Z,5.95
2023-01-03T07:11:00.360Z,10.68
2023-01-03T07:13:45.850Z,10.05
2023-01-03T07:16:15.985Z,6.28
2023-01-03T07:18:46.998Z,4.78
2023-01-03T07:21:18.717Z,4.50
2023-01-03T07:23:48.551Z,3.50
2023-01-03T07:26:17.870Z,6.80
2023-01-03T07:28:46.015Z,5.00
2023-01-03T07:31:13.838Z,5.70
2023-01-03T07:33:41.720Z,4.50
2023-01-03T07:36:12.317Z,4.22
2023-01-03T07:38:41.040Z,4.03
2023-01-03T07:41:09.292Z,4.28
2023-01-03T07:43:38.463Z,4.10
2023-01-03T07:46:11.527Z,3.30
2023-01-03T07:48:40.352Z,3.70
2023-01-03T07:51:09.387Z,3.75
2023-01-03T07:53:38.225Z,4.35
2023-01-03T07:56:12.987Z,4.07
2023-01-03T07:58:44.904Z,4.72
2023-01-03T08:01:14.708Z,4.07
2023-01-03T08:03:43.527Z,3.60
2023-01-03T08:06:13.187Z,3.92
2023-01-03T08:08:41.823Z,6.22
2023-01-03T08:11:30.364Z,4.20
2023-01-03T08:13:59.830Z,4.68
2023-01-03T08:16:27.631Z,5.80
2023-01-03T08:18:55.788Z,4.55
2023-01-03T08:21:23.702Z,5.00
2023-01-03T08:23:51.441Z,5.80
2023-01-03T08:26:19.345Z,6.15
2023-01-03T08:28:47.057Z,6.57
2023-01-03T08:31:19.686Z,8.65
2023-01-03T08:33:51.917Z,10.35
2023-01-03T08:36:20.601Z,8.40
2023-01-03T08:38:51.288Z,8.68
2023-01-03T08:41:23.731Z,6.35
2023-01-03T08:43:52.028Z,6.72
2023-01-03T08:46:22.040Z,6.35
2023-01-03T08:48:50.503Z,5.25
2023-01-03T08:51:18.220Z,5.70
2023-01-03T08:53:46.082Z,5.15
2023-01-03T08:56:13.843Z,4.75
2023-01-03T08:58:41.817Z,5.25
2023-01-03T09:01:11.451Z,5.32
2023-01-03T09:03:41.683Z,4.55
2023-01-03T09:06:09.520Z,4.78
2023-01-03T09:08:37.456Z,5.25
2023-01-03T09:11:06.568Z,5.20
2023-01-03T09:13:34.576Z,4.75
2023-01-03T09:16:02.904Z,4.85
2023-01-03T09:18:30.648Z,5.15
2023-01-03T09:20:59.829Z,5.30
2023-01-03T09:23:27.802Z,5.50
2023-01-03T09:25:55.696Z,5.20
2023-01-03T09:28:23.898Z,5.40
2023-01-03T09:30:51.767Z,5.05
2023-01-03T09:33:19.656Z,5.18
2023-01-03T09:35:48.294Z,5.20
2023-01-03T09:38:17.534Z,5.35
2023-01-03T09:40:47.135Z,5.38
2023-01-03T09:43:24.809Z,5.18
2023-01-03T09:45:56.689Z,4.95
2023-01-03T09:48:30.689Z,4.75
2023-01-03T09:51:18.371Z,5.13
2023-01-03T09:54:02.014Z,4.85
2023-01-03T09:56:47.323Z,4.82
2023-01-03T09:59:36.473Z,4.53
2023-01-03T10:02:42.822Z,5.05
2023-01-03T10:05:32.647Z,5.07
2023-01-03T10:08:25.574Z,5.90
2023-01-03T10:11:02.021Z,4.75
2023-01-03T10:13:42.956Z,5.25
2023-01-03T10:16:21.399Z,5.25
2023-01-03T10:19:15.594Z,5.25
2023-01-03T10:21:53.229Z,5.20
2023-01-03T10:24:25.932Z,4.90
2023-01-03T10:26:58.211Z,5.40
2023-01-03T10:29:26.134Z,5.97
2023-01-03T10:32:12.525Z,6.22
2023-01-03T10:34:40.487Z,5.65
2023-01-03T10:37:18.640Z,5.20
2023-01-03T10:39:46.921Z,4.63
2023-01-03T10:42:19.743Z,6.28
2023-01-03T10:47:30.475Z,5.97
2023-01-03T10:50:01.679Z,5.25
2023-01-03T10:52:33.859Z,5.97
2023-01-03T10:55:04.347Z,6.03
2023-01-03T10:57:39.397Z,5.75
2023-01-03T11:00:26.453Z,5.90
2023-01-03T11:02:55.755Z,4.72
2023-01-03T11:05:25.609Z,5.20
2023-01-03T11:07:56.063Z,5.25
2023-01-03T11:10:25.417Z,4.78
2023-01-03T11:12:54.883Z,4.10
2023-01-03T11:15:39.105Z,3.63
2023-01-03T11:18:18.356Z,2.50
2023-01-03T11:20:50.814Z,2.70
2023-01-03T11:23:30.300Z,2.60
2023-01-03T11:26:07.804Z,2.75
2023-01-03T11:28:57.062Z,3.42
2023-01-03T11:31:35.922Z,3.85
2023-01-03T11:34:17.178Z,2.90
2023-01-03T11:36:51.025Z,2.40
2023-01-03T11:39:40.234Z,3.05
2023-01-03T11:42:40.379Z,2.50
2023-01-03T11:45:49.184Z,2.58
2023-01-03T11:48:32.573Z,2.63
2023-01-03T11:51:09.537Z,2.83
2023-01-03T11:53:38.538Z,2.15
2023-01-03T11:56:14.846Z,2.35
2023-01-03T11:59:13.505Z,2.10
2023-01-03T12:01:51.964Z,1.80
2023-01-03T12:04:39.773Z,1.80
2023-01-03T12:07:46.967Z,1.77
2023-01-03T12:10:11.929Z,1.80
2023-01-03T12:13:01.483Z,1.88
2023-01-03T12:15:43.041Z,1.80
2023-01-03T12:18:19.872Z,2.05
2023-01-03T12:20:56.356Z,1.92
2023-01-03T12:23:33.449Z,1.50
2023-01-03T12:26:05.527Z,1.77
2023-01-03T12:28:39.739Z,1.60
2023-01-03T12:31:18.890Z,2.00
2023-01-03T12:33:54.812Z,1.70
2023-01-03T12:36:32.333Z,1.63
2023-01-03T12:39:08.493Z,1.60
2023-01-03T12:41:44.436Z,1.80
2023-01-03T12:44:19.468Z,1.55
2023-01-03T12:46:51.234Z,1.80
2023-01-03T12:49:25.660Z,1.80
2023-01-03T12:51:55.081Z,1.58
2023-01-03T12:54:35.287Z,1.60
2023-01-03T12:57:45.426Z,2.20
2023-01-03T13:00:32.992Z,2.20
2023-01-03T13:03:07.576Z,2.95
2023-01-03T13:05:42.310Z,2.55
2023-01-03T13:08:20.270Z,2.58
2023-01-03T13:10:51.091Z,3.15
2023-01-03T13:13:21.437Z,3.47
2023-01-03T13:15:49.918Z,3.53
2023-01-03T13:18:30.295Z,2.90
2023-01-03T13:20:58.733Z,3.00
2023-01-03T13:23:33.504Z,2.92
2023-01-03T13:26:21.930Z,2.30
2023-01-03T13:28:51.511Z,2.63
2023-01-03T13:32:02.900Z,2.50
2023-01-03T13:34:37.109Z,2.63
2023-01-03T13:37:18.287Z,2.53
2023-01-03T13:40:19.455Z,2.30
2023-01-03T13:42:47.688Z,2.63
2023-01-03T13:45:55.595Z,2.88
2023-01-03T13:48:30.176Z,3.47
2023-01-03T13:51:30.510Z,2.40
2023-01-03T13:54:02.612Z,2.40
2023-01-03T13:56:34.068Z,2.72
2023-01-03T13:59:13.419Z,2.75
2023-01-03T14:01:58.564Z,2.72
2023-01-03T14:05:03.432Z,3.13
2023-01-03T14:07:59.415Z,2.92
2023-01-03T14:10:43.400Z,2.78
2023-01-03T14:13:33.869Z,3.92
2023-01-03T14:16:17.806Z,4.18
2023-01-03T14:18:50.241Z,2.72
2023-01-03T14:21:26.225Z,2.80
2023-01-03T14:24:01.635Z,2.42
2023-01-03T14:26:32.940Z,2.70
2023-01-03T14:29:02.253Z,3.13
2023-01-03T14:31:30.396Z,3.20
2023-01-03T14:34:00.789Z,3.70
2023-01-03T14:36:29.130Z,4.47
2023-01-03T14:38:59.212Z,10.70
2023-01-03T14:41:30.426Z,4.47
2023-01-03T14:44:07.149Z,3.67
2023-01-03T14:46:37.088Z,4.32
2023-01-03T14:49:09.209Z,3.53
2023-01-03T14:51:38.411Z,3.45
2023-01-03T14:54:06.655Z,3.22
2023-01-03T14:56:34.710Z,3.25
2023-01-03T14:59:09.891Z,2.60
2023-01-03T15:01:38.879Z,2.78
2023-01-03T15:04:07.829Z,3.20
2023-01-03T15:06:36.879Z,3.22
2023-01-03T15:09:22.314Z,6.93
2023-01-03T15:11:59.175Z,4.07
2023-01-03T15:14:31.074Z,4.10
2023-01-03T15:17:04.664Z,6.10
2023-01-03T15:19:35.365Z,5.72
2023-01-03T15:22:15.579Z,3.38
2023-01-03T15:24:45.952Z,3.72
2023-01-03T15:27:34.999Z,7.00
2023-01-03T15:30:24.764Z,22.27
2023-01-03T15:32:58.315Z,20.65
2023-01-03T15:35:34.488Z,12.15
2023-01-03T15:38:04.417Z,8.55
2023-01-03T15:40:32.647Z,3.85
2023-01-03T15:43:23.471Z,3.80
2023-01-03T15:46:02.634Z,4.47
2023-01-03T15:48:35.178Z,3.33
2023-01-03T15:51:04.893Z,3.13
2023-01-03T15:53:41.003Z,3.00
2023-01-03T15:56:18.032Z,3.38
2023-01-03T15:58:47.100Z,3.10
2023-01-03T16:01:17.118Z,3.22
2023-01-03T16:03:45.233Z,3.85
2023-01-03T16:06:13.289Z,4.30
2023-01-03T16:08:42.530Z,4.18
2023-01-03T16:11:19.655Z,3.80
2023-01-03T16:13:51.861Z,4.10
2023-01-03T16:16:25.592Z,4.03
2023-01-03T16:18:54.885Z,4.45
2023-01-03T16:21:23.303Z,4.00
2023-01-03T16:23:52.019Z,4.72
2023-01-03T16:26:20.384Z,4.65
2023-01-03T16:28:48.174Z,4.47
2023-01-03T16:31:18.585Z,4.97
2023-01-03T16:33:50.040Z,4.18
2023-01-03T16:36:34.382Z,4.15
2023-01-03T16:39:02.392Z,4.00
2023-01-03T16:41:30.082Z,4.05
2023-01-03T16:43:57.872Z,4.18
2023-01-03T16:46:29.125Z,5.47
2023-01-03T16:49:00.600Z,8.35
2023-01-03T16:51:32.675Z,6.68
2023-01-03T16:54:03.740Z,6.03
2023-01-03T16:56:31.576Z,7.20
2023-01-03T16:58:59.880Z,7.25
2023-01-03T17:01:28.005Z,6.68
2023-01-03T17:03:55.965Z,6.18
2023-01-03T17:06:37.620Z,5.10
2023-01-03T17:09:12.482Z,4.80
2023-01-03T17:11:40.788Z,3.90
2023-01-03T17:14:16.735Z,4.38
2023-01-03T17:16:44.758Z,3.30
2023-01-03T17:19:52.263Z,3.30
2023-01-03T17:22:07.810Z,3.40
2023-01-03T17:24:35.945Z,2.65
2023-01-03T17:27:04.967Z,2.83
2023-01-03T17:29:33.042Z,5.30
2023-01-03T17:32:00.932Z,2.60
2023-01-03T17:34:30.324Z,3.22
2023-01-03T17:37:00.241Z,3.17
2023-01-03T17:39:29.805Z,3.92
2023-01-03T17:42:16.644Z,3.47
2023-01-03T17:45:05.715Z,3.70
2023-01-03T17:47:51.872Z,2.97
2023-01-03T17:50:19.807Z,2.90
2023-01-03T17:52:52.015Z,3.30
2023-01-03T17:55:27.177Z,3.50
2023-01-03T17:57:56.254Z,10.57
2023-01-03T18:00:26.282Z,5.35
2023-01-03T18:02:55.677Z,5.20
2023-01-03T18:05:28.549Z,4.05
2023-01-03T18:10:32.514Z,2.72
2023-01-03T18:13:00.455Z,3.92
2023-01-03T18:15:28.288Z,6.38
2023-01-03T18:17:56.064Z,8.52
2023-01-03T18:20:23.839Z,7.88
2023-01-03T18:22:51.658Z,4.30
2023-01-03T18:25:23.769Z,13.82
2023-01-03T18:27:56.456Z,9.75
2023-01-03T18:30:24.469Z,5.63
2023-01-03T18:32:52.306Z,4.45
2023-01-03T18:35:32.347Z,6.60
2023-01-03T18:38:03.515Z,6.32
2023-01-03T18:40:31.812Z,6.88
2023-01-03T18:43:12.759Z,3.80
2023-01-03T18:45:41.672Z,3.15
2023-01-03T18:48:16.339Z,2.88
2023-01-03T18:50:44.847Z,2.65
2023-01-03T18:53:17.837Z,3.03
2023-01-03T18:58:28.626Z,4.97
2023-01-03T19:00:56.427Z,3.83
2023-01-03T19:03:26.147Z,6.15
2023-01-03T19:05:55.386Z,4.80
2023-01-03T19:08:25.722Z,4.40
2023-01-03T19:10:53.971Z,3.72
2023-01-03T19:13:27.605Z,3.75
2023-01-03T19:15:56.017Z,4.80
2023-01-03T19:18:23.983Z,14.35
2023-01-03T19:20:51.971Z,13.50
2023-01-03T19:23:26.101Z,5.80
2023-01-03T19:25:54.920Z,5.53
2023-01-03T19:28:28.768Z,5.30
2023-01-03T19:30:56.700Z,4.18
2023-01-03T19:33:24.749Z,4.35
2023-01-03T19:35:52.581Z,5.45
2023-01-03T19:38:20.368Z,5.57
2023-01-03T19:40:48.206Z,5.07
2023-01-03T19:43:22.912Z,4.32
2023-01-03T19:45:52.277Z,4.30
2023-01-03T19:48:22.116Z,3.90
2023-01-03T19:50:50.744Z,3.25
2023-01-03T19:53:18.860Z,3.13
2023-01-03T19:55:48.721Z,2.88
2023-01-03T19:58:20.175Z,3.00
2023-01-03T20:00:49.466Z,3.00
2023-01-03T20:03:28.178Z,3.53
2023-01-03T20:05:56.650Z,3.88
2023-01-03T20:08:25.059Z,3.30
2023-01-03T20:10:54.228Z,3.92
2023-01-03T20:13:24.384Z,4.07
2023-01-03T20:15:54.647Z,4.03
2023-01-03T20:18:29.718Z,6.18
2023-01-03T20:21:00.450Z,6.53
2023-01-03T20:23:32.738Z,6.10
2023-01-03T20:26:00.685Z,5.18
2023-01-03T20:28:30.885Z,6.65
2023-01-03T20:31:00.635Z,7.32
2023-01-03T20:33:30.425Z,9.40
2023-01-03T20:36:12.650Z,9.05
2023-01-03T20:38:48.465Z,7.07
2023-01-03T20:41:18.241Z,6.10
2023-01-03T20:43:47.558Z,6.18
2023-01-03T20:46:20.253Z,6.35
2023-01-03T20:51:24.500Z,5.63
2023-01-03T20:53:55.140Z,6.10
2023-01-03T20:56:23.247Z,6.03
2023-01-03T20:58:51.010Z,6.38
2023-01-03T21:01:18.840Z,5.72
2023-01-03T21:03:46.770Z,5.80
2023-01-03T21:06:18.688Z,12.70
2023-01-03T21:08:55.524Z,78.97
2023-01-03T21:11:24.393Z,82.15
2023-01-03T21:13:52.626Z,23.80
2023-01-03T21:16:36.537Z,15.75
2023-01-03T21:19:07.600Z,14.35
2023-01-03T21:21:36.778Z,11.95
2023-01-03T21:24:05.588Z,7.85
2023-01-03T21:26:33.363Z,8.23
2023-01-03T21:29:01.244Z,11.65
2023-01-03T21:31:29.302Z,9.38
2023-01-03T21:33:57.336Z,10.10
2023-01-03T21:36:27.543Z,6.80
2023-01-03T21:38:57.260Z,7.40
2023-01-03T21:41:31.005Z,7.25
2023-01-03T21:43:59.782Z,8.10
2023-01-03T21:46:28.669Z,7.78
2023-01-03T21:48:57.025Z,7.93
2023-01-03T21:51:37.235Z,7.68
2023-01-03T21:54:08.417Z,7.43
2023-01-03T21:56:44.568Z,9.48
2023-01-03T21:59:12.918Z,8.98
2023-01-03T22:01:54.740Z,16.05
2023-01-03T22:04:22.622Z,18.30
2023-01-03T22:06:50.390Z,9.30
2023-01-03T22:09:45.470Z,7.90
2023-01-03T22:12:15.633Z,7.53
2023-01-03T22:14:44.691Z,6.93
2023-01-03T22:17:12.634Z,7.38
2023-01-03T22:19:40.393Z,7.55
2023-01-03T22:22:08.564Z,7.45
2023-01-03T22:24:37.624Z,6.68
2023-01-03T22:27:05.471Z,6.68
2023-01-03T22:29:33.223Z,7.03
2023-01-03T22:32:00.994Z,6.85
2023-01-03T22:34:28.975Z,6.03
2023-01-03T22:36:56.755Z,6.78
2023-01-03T22:39:24.472Z,6.50
2023-01-03T22:41:53.653Z,7.60
2023-01-03T22:44:21.362Z,6.47
2023-01-03T22:46:49.363Z,6.72
2023-01-03T22:49:17.141Z,6.10
2023-01-03T22:51:44.844Z,6.63
2023-01-03T22:54:12.578Z,6.10
2023-01-03T22:56:40.350Z,8.35
2023-01-03T22:59:09.473Z,8.07
2023-01-03T23:01:37.883Z,7.82
2023-01-03T23:04:06.764Z,8.23
2023-01-03T23:06:36.782Z,8.40
2023-01-03T23:09:05.275Z,7.43
2023-01-03T23:11:51.169Z,6.32
2023-01-03T23:14:22.555Z,6.68
2023-01-03T23:16:51.825Z,6.90
2023-01-03T23:19:21.729Z,6.68
2023-01-03T23:21:49.583Z,7.13
2023-01-03T23:24:19.901Z,8.15
2023-01-03T23:26:47.782Z,7.85
2023-01-03T23:29:15.704Z,8.18
2023-01-03T23:31:45.657Z,8.00
2023-01-03T23:34:14.028Z,8.18
2023-01-03T23:36:43.712Z,7.20
2023-01-03T23:39:13.780Z,7.65
2023-01-03T23:41:41.576Z,6.78
2023-01-03T23:44:09.594Z,7.28
2023-01-03T23:46:37.317Z,7.13
2023-01-03T23:49:06.667Z,7.40
2023-01-03T23:51:34.464Z,8.10
2023-01-03T23:54:02.286Z,8.55
2023-01-03T23:56:30.004Z,8.00
2023-01-03T23:58:57.684Z,8.10
